createdAt,value
2023-03-16T00:02:01.132Z,21.20
2023-03-16T00:04:32.206Z,21.20
2023-03-16T00:07:02.367Z,21.20
2023-03-16T00:09:35.196Z,21.20
2023-03-16T00:12:05.500Z,21.20
2023-03-16T00:14:37.328Z,21.30
2023-03-16T00:17:08.289Z,21.30
2023-03-16T00:19:38.529Z,21.20
2023-03-16T00:22:08.832Z,21.30
2023-03-16T00:24:39.118Z,21.20
2023-03-16T00:27:09.548Z,21.30
2023-03-16T00:29:39.846Z,21.30
2023-03-16T00:32:10.377Z,21.30
2023-03-16T00:34:40.576Z,21.30
2023-03-16T00:37:11.006Z,21.30
2023-03-16T00:39:41.202Z,21.30
2023-03-16T00:42:12.927Z,21.30
2023-03-16T00:44:46.084Z,21.30
2023-03-16T00:47:17.290Z,21.40
2023-03-16T00:49:47.781Z,21.40
2023-03-16T00:52:18.331Z,21.40
2023-03-16T00:54:50.477Z,21.40
2023-03-16T00:57:21.899Z,21.40
2023-03-16T00:59:52.653Z,21.40
2023-03-16T01:02:26.669Z,21.40
2023-03-16T01:04:57.155Z,21.40
2023-03-16T01:07:27.610Z,21.40
2023-03-16T01:09:57.787Z,21.40
2023-03-16T01:12:28.238Z,21.40
2023-03-16T01:14:58.476Z,21.50
2023-03-16T01:17:29.084Z,21.50
2023-03-16T01:19:59.372Z,21.50
2023-03-16T01:22:30.525Z,21.50
2023-03-16T01:25:00.727Z,21.50
2023-03-16T01:27:31.010Z,21.50
2023-03-16T01:30:01.805Z,21.50
2023-03-16T01:32:32.101Z,21.50
2023-03-16T01:35:02.864Z,21.50
2023-03-16T01:37:33.410Z,21.50
2023-03-16T01:40:03.947Z,21.50
2023-03-16T01:42:34.298Z,21.50
2023-03-16T01:45:07.193Z,21.60
2023-03-16T01:47:41.450Z,21.60
2023-03-16T01:50:11.981Z,21.60
2023-03-16T01:52:43.038Z,21.60
2023-03-16T01:55:17.392Z,21.60
2023-03-16T01:57:50.028Z,21.60
2023-03-16T02:00:25.483Z,21.60
2023-03-16T02:03:02.529Z,21.60
2023-03-16T02:05:55.505Z,21.70
2023-03-16T02:08:29.903Z,21.70
2023-03-16T02:11:00.982Z,21.70
2023-03-16T02:13:35.207Z,21.70
2023-03-16T02:16:10.744Z,21.70
2023-03-16T02:18:41.077Z,21.70
2023-03-16T02:21:22.300Z,21.70
2023-03-16T02:23:53.538Z,21.70
2023-03-16T02:26:49.192Z,21.70
2023-03-16T02:29:31.392Z,21.80
2023-03-16T02:32:04.333Z,21.80
2023-03-16T02:34:35.484Z,21.80
2023-03-16T02:37:06.607Z,21.80
2023-03-16T02:39:36.909Z,21.80
2023-03-16T02:42:08.034Z,21.80
2023-03-16T02:44:43.732Z,21.80
2023-03-16T02:47:24.342Z,21.80
2023-03-16T02:49:55.115Z,21.80
2023-03-16T02:52:25.796Z,21.90
2023-03-16T02:54:56.304Z,21.90
2023-03-16T02:57:26.773Z,21.90
2023-03-16T02:59:57.336Z,21.90
2023-03-16T03:02:27.747Z,21.90
2023-03-16T03:04:58.793Z,21.90
2023-03-16T03:07:33.460Z,21.90
2023-03-16T03:10:07.815Z,21.90
2023-03-16T03:12:38.371Z,22.00
2023-03-16T03:15:09.342Z,21.90
2023-03-16T03:17:39.588Z,22.00
2023-03-16T03:20:15.624Z,22.00
2023-03-16T03:22:47.315Z,22.00
2023-03-16T03:25:20.551Z,22.00
2023-03-16T03:27:52.726Z,22.00
2023-03-16T03:30:30.185Z,22.00
2023-03-16T03:33:00.904Z,22.10
2023-03-16T03:35:31.826Z,22.10
2023-03-16T03:38:02.137Z,22.10
2023-03-16T03:40:32.396Z,22.10
2023-03-16T03:43:03.194Z,22.10
2023-03-16T03:45:33.487Z,22.10
2023-03-16T03:48:03.853Z,22.10
2023-03-16T03:50:34.090Z,22.20
2023-03-16T03:53:04.321Z,22.10
2023-03-16T03:55:34.589Z,22.20
2023-03-16T03:58:04.845Z,22.20
2023-03-16T04:00:35.356Z,22.20
2023-03-16T04:03:06.805Z,22.20
2023-03-16T04:05:37.207Z,22.20
2023-03-16T04:08:07.658Z,22.30
2023-03-16T04:10:37.921Z,22.30
2023-03-16T04:13:08.188Z,22.30
2023-03-16T04:15:40.409Z,22.30
2023-03-16T04:18:10.725Z,22.30
2023-03-16T04:20:41.039Z,22.30
2023-03-16T04:23:11.417Z,22.40
2023-03-16T04:25:41.627Z,22.40
2023-03-16T04:28:12.625Z,22.40
2023-03-16T04:30:44.646Z,22.40
2023-03-16T04:33:16.552Z,22.40
2023-03-16T04:35:47.771Z,22.40
2023-03-16T04:38:21.340Z,22.50
2023-03-16T04:40:51.605Z,22.50
2023-03-16T04:43:21.813Z,22.50
2023-03-16T04:45:52.311Z,22.50
2023-03-16T04:48:22.886Z,22.50
2023-03-16T04:50:53.104Z,22.50
2023-03-16T04:53:23.351Z,22.50
2023-03-16T04:55:53.633Z,22.50
2023-03-16T04:58:24.466Z,22.50
2023-03-16T05:00:58.091Z,22.60
2023-03-16T05:03:28.356Z,22.60
2023-03-16T05:05:58.607Z,22.60
2023-03-16T05:08:32.053Z,22.60
2023-03-16T05:11:02.846Z,22.60
2023-03-16T05:13:33.349Z,22.60
2023-03-16T05:16:03.838Z,22.70
2023-03-16T05:18:35.589Z,22.70
2023-03-16T05:21:06.099Z,22.70
2023-03-16T05:23:36.517Z,22.70
2023-03-16T05:26:07.348Z,22.70
2023-03-16T05:28:37.679Z,22.70
2023-03-16T05:31:08.745Z,22.70
2023-03-16T05:33:39.352Z,22.70
2023-03-16T05:36:10.090Z,22.80
2023-03-16T05:38:41.044Z,22.80
2023-03-16T05:41:11.231Z,22.80
2023-03-16T05:43:41.419Z,22.80
2023-03-16T05:46:11.822Z,22.90
2023-03-16T05:48:42.483Z,22.90
2023-03-16T05:51:12.650Z,22.90
2023-03-16T05:53:43.074Z,22.90
2023-03-16T05:56:13.370Z,22.90
2023-03-16T05:58:43.963Z,22.90
2023-03-16T06:01:15.035Z,22.90
2023-03-16T06:03:45.299Z,22.90
2023-03-16T06:06:15.587Z,22.90
2023-03-16T06:08:45.997Z,23.00
2023-03-16T06:11:16.289Z,23.00
2023-03-16T06:13:46.977Z,23.00
2023-03-16T06:16:18.574Z,23.00
2023-03-16T06:18:48.827Z,23.00
2023-03-16T06:21:19.127Z,23.00
2023-03-16T06:23:49.366Z,23.00
2023-03-16T06:26:19.578Z,23.00
2023-03-16T06:28:50.312Z,23.10
2023-03-16T06:31:20.568Z,23.10
2023-03-16T06:33:50.909Z,23.10
2023-03-16T06:36:21.644Z,23.10
2023-03-16T06:38:51.919Z,23.10
2023-03-16T06:41:22.839Z,23.10
2023-03-16T06:43:53.041Z,23.10
2023-03-16T06:46:23.441Z,23.20
2023-03-16T06:48:53.747Z,23.10
2023-03-16T06:51:24.053Z,23.10
2023-03-16T06:53:54.262Z,23.10
2023-03-16T06:56:24.578Z,23.20
2023-03-16T06:58:54.823Z,23.20
2023-03-16T07:01:25.074Z,23.20
2023-03-16T07:03:56.298Z,23.20
2023-03-16T07:06:26.518Z,23.20
2023-03-16T07:08:56.698Z,23.20
2023-03-16T07:11:26.930Z,23.20
2023-03-16T07:13:57.134Z,23.30
2023-03-16T07:16:27.979Z,23.30
2023-03-16T07:18:58.466Z,23.30
2023-03-16T07:21:28.716Z,23.30
2023-03-16T07:23:59.193Z,23.30
2023-03-16T07:26:29.428Z,23.30
2023-03-16T07:28:59.603Z,23.30
2023-03-16T07:31:29.990Z,23.30
2023-03-16T07:34:00.840Z,23.30
2023-03-16T07:36:31.518Z,23.30
2023-03-16T07:39:02.015Z,23.30
2023-03-16T07:41:32.788Z,23.40
2023-03-16T07:44:03.154Z,23.30
2023-03-16T07:46:34.311Z,23.30
2023-03-16T07:49:04.678Z,23.40
2023-03-16T07:51:34.976Z,23.40
2023-03-16T07:54:06.092Z,23.40
2023-03-16T07:56:47.905Z,23.40
2023-03-16T07:59:20.882Z,23.40
2023-03-16T08:01:51.324Z,23.40
2023-03-16T08:04:21.574Z,23.40
2023-03-16T08:06:54.056Z,23.40
2023-03-16T08:09:24.323Z,23.40
2023-03-16T08:11:54.863Z,23.40
2023-03-16T08:14:25.442Z,23.40
2023-03-16T08:16:56.685Z,23.40
2023-03-16T08:19:26.896Z,23.40
2023-03-16T08:22:01.454Z,23.40
2023-03-16T08:24:32.761Z,23.40
2023-03-16T08:27:03.450Z,23.40
2023-03-16T08:29:36.055Z,23.50
2023-03-16T08:32:06.425Z,23.50
2023-03-16T08:34:37.880Z,23.50
2023-03-16T08:37:08.570Z,23.40
2023-03-16T08:39:38.801Z,23.50
2023-03-16T08:42:09.789Z,23.50
2023-03-16T08:44:40.174Z,23.50
2023-03-16T08:47:10.502Z,23.50
2023-03-16T08:49:41.116Z,23.50
2023-03-16T08:52:14.631Z,23.50
2023-03-16T08:55:01.438Z,23.50
2023-03-16T08:57:33.087Z,23.50
2023-03-16T09:00:05.429Z,23.50
2023-03-16T09:02:40.118Z,23.50
2023-03-16T09:05:12.935Z,23.50
2023-03-16T09:07:43.996Z,23.50
2023-03-16T09:10:17.897Z,23.50
2023-03-16T09:12:48.358Z,23.50
2023-03-16T09:15:19.653Z,23.50
2023-03-16T09:17:50.836Z,23.50
2023-03-16T09:20:26.404Z,23.50
2023-03-16T09:23:00.544Z,23.50
2023-03-16T09:25:31.128Z,23.50
2023-03-16T09:28:02.676Z,23.50
2023-03-16T09:30:33.015Z,23.50
2023-03-16T09:33:03.394Z,23.60
2023-03-16T09:35:35.116Z,23.50
2023-03-16T09:38:09.773Z,23.50
2023-03-16T09:40:41.210Z,23.50
2023-03-16T09:43:29.812Z,23.50
2023-03-16T09:46:09.467Z,23.50
2023-03-16T09:48:42.722Z,23.50
2023-03-16T09:51:41.338Z,23.50
2023-03-16T09:54:32.678Z,23.60
2023-03-16T09:57:04.306Z,23.50
2023-03-16T09:59:34.516Z,23.50
2023-03-16T10:02:31.923Z,23.50
2023-03-16T10:05:19.391Z,23.60
2023-03-16T10:08:07.596Z,23.50
2023-03-16T10:10:49.569Z,23.50
2023-03-16T10:13:58.917Z,23.50
2023-03-16T10:16:49.257Z,23.50
2023-03-16T10:19:45.887Z,23.50
2023-03-16T10:22:32.222Z,23.50
2023-03-16T10:25:16.025Z,23.50
2023-03-16T10:27:47.764Z,23.50
2023-03-16T10:30:21.544Z,23.50
2023-03-16T10:32:52.598Z,23.50
2023-03-16T10:35:44.135Z,23.50
2023-03-16T10:38:48.385Z,23.50
2023-03-16T10:41:24.070Z,23.50
2023-03-16T10:43:57.748Z,23.50
2023-03-16T10:46:30.034Z,23.50
2023-03-16T10:49:02.982Z,23.50
2023-03-16T10:51:37.160Z,23.50
2023-03-16T10:54:27.423Z,23.50
2023-03-16T10:56:58.391Z,23.50
2023-03-16T10:59:37.011Z,23.50
2023-03-16T11:02:22.256Z,23.50
2023-03-16T11:04:55.138Z,23.50
2023-03-16T11:07:27.235Z,23.50
2023-03-16T11:10:00.415Z,23.50
2023-03-16T11:12:33.661Z,23.50
2023-03-16T11:15:25.913Z,23.50
2023-03-16T11:17:57.131Z,23.50
2023-03-16T11:20:30.796Z,23.50
2023-03-16T11:23:03.444Z,23.50
2023-03-16T11:26:05.113Z,23.50
2023-03-16T11:28:43.445Z,23.50
2023-03-16T11:31:16.517Z,23.50
2023-03-16T11:33:46.909Z,23.50
2023-03-16T11:36:46.162Z,23.40
2023-03-16T11:39:33.390Z,23.50
2023-03-16T11:42:41.266Z,23.50
2023-03-16T11:45:54.213Z,23.50
2023-03-16T11:48:40.033Z,23.50
2023-03-16T11:51:19.204Z,23.40
2023-03-16T11:54:08.202Z,23.40
2023-03-16T11:56:45.152Z,23.40
2023-03-16T11:59:46.283Z,23.40
2023-03-16T12:02:25.755Z,23.50
2023-03-16T12:05:18.406Z,23.40
2023-03-16T12:08:07.651Z,23.40
2023-03-16T12:10:58.948Z,23.40
2023-03-16T12:13:49.953Z,23.40
2023-03-16T12:16:24.536Z,23.40
2023-03-16T12:18:57.833Z,23.40
2023-03-16T12:21:34.425Z,23.40
2023-03-16T12:24:20.819Z,23.40
2023-03-16T12:26:51.647Z,23.40
2023-03-16T12:29:57.405Z,23.40
2023-03-16T12:32:36.621Z,23.40
2023-03-16T12:35:24.091Z,23.40
2023-03-16T12:38:29.417Z,23.40
2023-03-16T12:41:21.440Z,23.40
2023-03-16T12:44:01.159Z,23.40
2023-03-16T12:46:38.166Z,23.40
2023-03-16T12:49:10.189Z,23.40
2023-03-16T12:51:43.950Z,23.40
2023-03-16T12:54:29.438Z,23.40
2023-03-16T12:57:10.807Z,23.40
2023-03-16T12:59:51.992Z,23.40
2023-03-16T13:02:26.699Z,23.40
2023-03-16T13:05:17.851Z,23.40
2023-03-16T13:08:05.900Z,23.40
2023-03-16T13:10:36.730Z,23.40
2023-03-16T13:13:18.808Z,23.40
2023-03-16T13:15:51.281Z,23.40
2023-03-16T13:18:22.954Z,23.30
2023-03-16T13:21:02.798Z,23.40
2023-03-16T13:23:56.088Z,23.40
2023-03-16T13:26:45.563Z,23.40
2023-03-16T13:29:21.967Z,23.40
2023-03-16T13:31:53.376Z,23.30
2023-03-16T13:34:58.610Z,23.30
2023-03-16T13:37:31.275Z,23.40
2023-03-16T13:40:06.533Z,23.40
2023-03-16T13:42:38.426Z,23.30
2023-03-16T13:45:16.948Z,23.30
2023-03-16T13:47:47.711Z,23.30
2023-03-16T13:50:19.441Z,23.30
2023-03-16T13:53:05.720Z,23.30
2023-03-16T13:55:38.637Z,23.30
2023-03-16T13:58:20.686Z,23.30
2023-03-16T14:00:51.160Z,23.30
2023-03-16T14:03:24.307Z,23.30
2023-03-16T14:05:55.205Z,23.30
2023-03-16T14:08:32.878Z,23.30
2023-03-16T14:11:05.310Z,23.30
2023-03-16T14:13:41.005Z,23.30
2023-03-16T14:16:19.905Z,23.30
2023-03-16T14:18:56.577Z,23.30
2023-03-16T14:21:32.252Z,23.30
2023-03-16T14:24:09.004Z,23.30
2023-03-16T14:26:45.490Z,23.30
2023-03-16T14:29:26.665Z,23.30
2023-03-16T14:31:57.368Z,23.30
2023-03-16T14:34:34.163Z,23.20
2023-03-16T14:37:14.625Z,23.30
2023-03-16T14:39:45.692Z,23.30
2023-03-16T14:42:31.836Z,23.20
2023-03-16T14:45:09.704Z,23.30
2023-03-16T14:47:48.913Z,23.20
2023-03-16T14:50:28.620Z,23.20
2023-03-16T14:53:00.373Z,23.20
2023-03-16T14:55:31.041Z,23.20
2023-03-16T14:58:01.459Z,23.20
2023-03-16T15:00:42.815Z,23.20
2023-03-16T15:03:21.943Z,23.20
2023-03-16T15:05:54.249Z,23.20
2023-03-16T15:08:34.442Z,23.20
2023-03-16T15:11:07.488Z,23.20
2023-03-16T15:13:44.576Z,23.20
2023-03-16T15:16:17.022Z,23.10
2023-03-16T15:18:47.608Z,23.10
2023-03-16T15:21:31.209Z,23.20
2023-03-16T15:24:01.480Z,23.20
2023-03-16T15:26:33.051Z,23.10
2023-03-16T15:29:04.019Z,23.10
2023-03-16T15:31:34.311Z,23.10
2023-03-16T15:34:04.725Z,23.10
2023-03-16T15:36:35.183Z,23.10
2023-03-16T15:39:06.046Z,23.10
2023-03-16T15:41:47.139Z,23.10
2023-03-16T15:44:18.155Z,23.10
2023-03-16T15:46:49.606Z,23.10
2023-03-16T15:49:19.862Z,23.10
2023-03-16T15:51:50.169Z,23.10
2023-03-16T15:54:20.430Z,23.10
2023-03-16T15:56:54.596Z,23.10
2023-03-16T15:59:27.630Z,23.10
2023-03-16T16:01:58.106Z,23.10
2023-03-16T16:04:28.386Z,23.10
2023-03-16T16:06:59.534Z,23.10
2023-03-16T16:09:29.761Z,23.10
2023-03-16T16:12:00.030Z,23.00
2023-03-16T16:14:31.029Z,23.10
2023-03-16T16:17:01.393Z,23.00
2023-03-16T16:19:32.122Z,23.00
2023-03-16T16:22:02.425Z,23.00
2023-03-16T16:24:32.609Z,23.00
2023-03-16T16:27:03.118Z,23.00
2023-03-16T16:29:36.717Z,23.00
2023-03-16T16:32:22.528Z,23.00
2023-03-16T16:35:03.877Z,23.00
2023-03-16T16:37:34.997Z,23.00
2023-03-16T16:40:05.231Z,23.00
2023-03-16T16:42:35.658Z,23.00
2023-03-16T16:45:05.968Z,23.00
2023-03-16T16:47:36.231Z,23.00
2023-03-16T16:50:20.967Z,23.00
2023-03-16T16:52:52.487Z,23.00
2023-03-16T16:55:24.671Z,22.90
2023-03-16T16:57:57.529Z,22.90
2023-03-16T17:00:29.775Z,23.00
2023-03-16T17:03:00.641Z,22.90
2023-03-16T17:05:32.930Z,23.00
2023-03-16T17:08:06.211Z,22.90
2023-03-16T17:10:36.652Z,22.90
2023-03-16T17:13:07.642Z,22.90
2023-03-16T17:15:47.133Z,22.90
2023-03-16T17:18:19.220Z,22.90
2023-03-16T17:20:49.715Z,22.90
2023-03-16T17:23:36.122Z,22.90
2023-03-16T17:26:38.658Z,22.90
2023-03-16T17:29:30.727Z,22.90
2023-03-16T17:32:03.998Z,22.90
2023-03-16T17:34:36.633Z,22.90
2023-03-16T17:37:09.963Z,22.90
2023-03-16T17:39:41.246Z,22.90
2023-03-16T17:42:20.805Z,22.90
2023-03-16T17:44:53.929Z,22.90
2023-03-16T17:47:27.113Z,22.90
2023-03-16T17:49:58.918Z,22.80
2023-03-16T17:52:31.465Z,22.80
2023-03-16T17:55:01.768Z,22.80
2023-03-16T17:57:34.422Z,22.80
2023-03-16T18:00:28.653Z,22.80
2023-03-16T18:03:16.282Z,22.80
2023-03-16T18:05:48.303Z,22.80
2023-03-16T18:08:48.382Z,22.80
2023-03-16T18:11:41.497Z,22.80
2023-03-16T18:14:36.558Z,22.80
2023-03-16T18:17:25.744Z,22.70
2023-03-16T18:19:56.444Z,22.70
2023-03-16T18:22:27.471Z,22.70
2023-03-16T18:24:58.142Z,22.70
2023-03-16T18:27:28.842Z,22.70
2023-03-16T18:29:59.088Z,22.70
2023-03-16T18:32:32.052Z,22.70
2023-03-16T18:35:03.960Z,22.70
2023-03-16T18:37:34.625Z,22.70
2023-03-16T18:40:04.927Z,22.70
2023-03-16T18:42:35.429Z,22.70
2023-03-16T18:45:06.081Z,22.70
2023-03-16T18:47:37.329Z,22.70
2023-03-16T18:50:08.253Z,22.70
2023-03-16T18:52:40.860Z,22.70
2023-03-16T18:55:23.264Z,22.70
2023-03-16T18:57:58.096Z,22.70
2023-03-16T19:00:30.220Z,22.70
2023-03-16T19:03:04.895Z,22.60
2023-03-16T19:05:40.457Z,22.60
2023-03-16T19:08:13.485Z,22.60
2023-03-16T19:10:51.373Z,22.60
2023-03-16T19:13:24.147Z,22.60
2023-03-16T19:15:56.774Z,22.60
2023-03-16T19:18:27.810Z,22.60
2023-03-16T19:20:58.577Z,22.60
2023-03-16T19:23:38.392Z,22.60
2023-03-16T19:26:09.152Z,22.60
2023-03-16T19:28:42.194Z,22.60
2023-03-16T19:31:28.438Z,22.60
2023-03-16T19:34:00.164Z,22.60
2023-03-16T19:36:32.913Z,22.60
2023-03-16T19:39:03.661Z,22.50
2023-03-16T19:41:40.302Z,22.60
2023-03-16T19:44:21.549Z,22.60
2023-03-16T19:46:52.022Z,22.60
2023-03-16T19:49:24.499Z,22.50
2023-03-16T19:51:57.470Z,22.50
2023-03-16T19:54:34.203Z,22.50
2023-03-16T19:57:14.074Z,22.50
2023-03-16T19:59:45.699Z,22.50
2023-03-16T20:02:53.136Z,22.50
2023-03-16T20:05:28.324Z,22.50
2023-03-16T20:08:01.752Z,22.50
2023-03-16T20:10:34.437Z,22.50
2023-03-16T20:13:05.789Z,22.50
2023-03-16T20:15:37.690Z,22.50
2023-03-16T20:18:14.947Z,22.50
2023-03-16T20:20:45.972Z,22.50
2023-03-16T20:23:36.761Z,22.50
2023-03-16T20:26:08.974Z,22.50
2023-03-16T20:28:40.245Z,22.50
2023-03-16T20:31:19.124Z,22.50
2023-03-16T20:33:50.283Z,22.40
2023-03-16T20:36:21.849Z,22.40
2023-03-16T20:38:52.915Z,22.40
2023-03-16T20:41:38.001Z,22.40
2023-03-16T20:44:14.025Z,22.40
2023-03-16T20:46:46.391Z,22.40
2023-03-16T20:49:26.900Z,22.40
2023-03-16T20:51:57.189Z,22.40
2023-03-16T20:54:27.477Z,22.40
2023-03-16T20:56:57.846Z,22.40
2023-03-16T20:59:29.868Z,22.40
2023-03-16T21:02:00.147Z,22.40
2023-03-16T21:04:31.901Z,22.40
2023-03-16T21:07:02.286Z,22.30
2023-03-16T21:09:34.926Z,22.40
2023-03-16T21:12:05.706Z,22.40
2023-03-16T21:14:36.324Z,22.40
2023-03-16T21:17:08.143Z,22.30
2023-03-16T21:19:38.416Z,22.40
2023-03-16T21:22:27.795Z,22.30
2023-03-16T21:24:58.997Z,22.40
2023-03-16T21:27:35.635Z,22.30
2023-03-16T21:30:27.936Z,22.30
2023-03-16T21:32:59.218Z,22.30
2023-03-16T21:35:37.526Z,22.30
2023-03-16T21:38:18.750Z,22.30
2023-03-16T21:40:49.886Z,22.30
2023-03-16T21:43:20.274Z,22.30
2023-03-16T21:45:52.813Z,22.30
2023-03-16T21:48:26.515Z,22.30
2023-03-16T21:50:57.506Z,22.30
2023-03-16T21:53:30.878Z,22.30
2023-03-16T21:56:01.874Z,22.30
2023-03-16T21:58:32.187Z,22.30
2023-03-16T22:01:02.629Z,22.30
2023-03-16T22:03:50.187Z,22.30
2023-03-16T22:06:21.670Z,22.30
2023-03-16T22:08:53.084Z,22.30
2023-03-16T22:11:26.475Z,22.30
2023-03-16T22:13:58.093Z,22.30
2023-03-16T22:16:31.701Z,22.30
2023-03-16T22:19:02.311Z,22.30
2023-03-16T22:21:39.546Z,22.30
2023-03-16T22:24:25.721Z,22.30
2023-03-16T22:26:56.160Z,22.30
2023-03-16T22:29:35.647Z,22.20
2023-03-16T22:32:14.791Z,22.30
2023-03-16T22:34:49.868Z,22.20
2023-03-16T22:37:26.781Z,22.30
2023-03-16T22:40:00.124Z,22.20
2023-03-16T22:42:30.468Z,22.20
2023-03-16T22:45:01.277Z,22.20
2023-03-16T22:47:38.438Z,22.20
2023-03-16T22:50:09.489Z,22.20
2023-03-16T22:52:40.620Z,22.20
2023-03-16T22:55:17.475Z,22.20
2023-03-16T22:57:48.597Z,22.20
2023-03-16T23:00:23.766Z,22.20
2023-03-16T23:02:53.961Z,22.20
2023-03-16T23:05:31.244Z,22.20
2023-03-16T23:08:04.640Z,22.20
2023-03-16T23:10:34.882Z,22.20
2023-03-16T23:13:05.667Z,22.20
2023-03-16T23:15:36.053Z,22.20
2023-03-16T23:18:06.560Z,22.20
2023-03-16T23:20:36.852Z,22.20
2023-03-16T23:23:07.273Z,22.20
2023-03-16T23:25:39.436Z,22.20
2023-03-16T23:28:10.023Z,22.20
2023-03-16T23:30:40.896Z,22.20
2023-03-16T23:33:14.623Z,22.20
2023-03-16T23:35:48.045Z,22.20
2023-03-16T23:38:28.047Z,22.20
2023-03-16T23:40:58.961Z,22.20
2023-03-16T23:43:29.439Z,22.20
2023-03-16T23:46:00.031Z,22.20
2023-03-16T23:48:30.336Z,22.20
2023-03-16T23:51:01.810Z,22.20
2023-03-16T23:53:32.034Z,22.20
2023-03-16T23:56:02.698Z,22.20
2023-03-16T23:58:32.950Z,22.30
